createdAt,value
2018-09-04T00:00:28.447Z,0
2018-09-04T00:01:29.187Z,0
2018-09-04T00:02:29.943Z,0
2018-09-04T00:03:30.681Z,0
2018-09-04T00:04:31.398Z,0
2018-09-04T00:05:32.176Z,0
2018-09-04T00:06:32.912Z,0
2018-09-04T00:07:33.649Z,0
2018-09-04T00:08:34.381Z,0
2018-09-04T00:09:35.814Z,0
2018-09-04T00:10:36.680Z,0
2018-09-04T00:11:37.417Z,0
2018-09-04T00:12:38.368Z,0
2018-09-04T00:13:39.130Z,0
2018-09-04T00:14:40.007Z,0
2018-09-04T00:15:40.899Z,0
2018-09-04T00:16:41.638Z,0
2018-09-04T00:17:42.428Z,0
2018-09-04T00:18:43.404Z,0
2018-09-04T00:19:44.143Z,0
2018-09-04T00:20:44.961Z,0
2018-09-04T00:21:45.956Z,0
2018-09-04T00:22:46.765Z,0
2018-09-04T00:23:47.508Z,0
2018-09-04T00:24:48.664Z,0
2018-09-04T00:25:49.462Z,0
2018-09-04T00:26:50.722Z,0
2018-09-04T00:27:51.466Z,0
2018-09-04T00:28:52.715Z,0
2018-09-04T00:29:53.440Z,0
2018-09-04T00:30:54.713Z,0
2018-09-04T00:31:55.488Z,0
2018-09-04T00:32:56.356Z,0
2018-09-04T00:33:57.115Z,0
2018-09-04T00:34:57.949Z,0
2018-09-04T00:35:59.024Z,0
2018-09-04T00:36:59.971Z,0
2018-09-04T00:38:00.757Z,0
2018-09-04T00:39:01.488Z,0
2018-09-04T00:40:02.340Z,0
2018-09-04T00:41:03.069Z,0
2018-09-04T00:42:03.803Z,0
2018-09-04T00:43:04.526Z,0
2018-09-04T00:44:05.255Z,0
2018-09-04T00:45:06.254Z,0
2018-09-04T00:46:06.977Z,0
2018-09-04T00:47:07.698Z,0
2018-09-04T00:48:08.435Z,0
2018-09-04T00:49:09.167Z,0
2018-09-04T00:50:09.899Z,0
2018-09-04T00:51:10.621Z,0
2018-09-04T00:52:11.342Z,0
2018-09-04T00:53:12.075Z,0
2018-09-04T00:54:13.064Z,0
2018-09-04T00:55:13.789Z,0
2018-09-04T00:56:14.519Z,0
2018-09-04T00:57:15.244Z,0
2018-09-04T00:58:15.979Z,0
2018-09-04T00:59:16.726Z,0
2018-09-04T01:00:17.453Z,0
2018-09-04T01:01:18.190Z,0
2018-09-04T01:02:18.918Z,0
2018-09-04T01:03:19.640Z,0
2018-09-04T01:04:20.621Z,0
2018-09-04T01:05:21.343Z,0
2018-09-04T01:06:22.070Z,0
2018-09-04T01:07:22.807Z,0
2018-09-04T01:08:23.525Z,0
2018-09-04T01:09:24.253Z,0
2018-09-04T01:10:24.970Z,0
2018-09-04T01:11:25.692Z,0
2018-09-04T01:12:26.415Z,0
2018-09-04T01:13:27.399Z,0
2018-09-04T01:14:28.128Z,0
2018-09-04T01:15:28.851Z,0
2018-09-04T01:16:29.578Z,0
2018-09-04T01:17:30.650Z,0
2018-09-04T01:18:31.382Z,0
2018-09-04T01:19:32.351Z,0
2018-09-04T01:20:33.072Z,0
2018-09-04T01:21:33.803Z,0
2018-09-04T01:22:34.524Z,0
2018-09-04T01:23:35.273Z,0
2018-09-04T01:24:35.997Z,0
2018-09-04T01:25:36.730Z,0
2018-09-04T01:26:37.458Z,0
2018-09-04T01:27:38.191Z,0
2018-09-04T01:28:38.910Z,0
2018-09-04T01:29:39.639Z,0
2018-09-04T01:30:40.371Z,0
2018-09-04T01:31:41.092Z,0
2018-09-04T01:32:42.072Z,0
2018-09-04T01:33:42.813Z,0
2018-09-04T01:34:43.529Z,0
2018-09-04T01:35:44.260Z,0
2018-09-04T01:36:45.223Z,0
2018-09-04T01:37:45.999Z,0
2018-09-04T01:38:46.980Z,0
2018-09-04T01:39:47.714Z,0
2018-09-04T01:40:48.474Z,0
2018-09-04T01:41:49.188Z,0
2018-09-04T01:42:49.963Z,0
2018-09-04T01:43:50.940Z,0
2018-09-04T01:44:51.655Z,0
2018-09-04T01:45:52.373Z,0
2018-09-04T01:46:53.101Z,0
2018-09-04T01:47:53.836Z,0
2018-09-04T01:48:54.562Z,0
2018-09-04T01:49:55.290Z,0
2018-09-04T01:50:56.017Z,0
2018-09-04T01:51:56.748Z,0
2018-09-04T01:52:57.522Z,0
2018-09-04T01:53:58.261Z,0
2018-09-04T01:54:58.990Z,0
2018-09-04T01:55:59.753Z,0
2018-09-04T01:57:00.478Z,0
2018-09-04T01:58:01.217Z,0
2018-09-04T01:59:02.027Z,0
2018-09-04T02:00:02.732Z,0
2018-09-04T02:01:03.461Z,0
2018-09-04T02:02:04.203Z,0
2018-09-04T02:03:04.931Z,0
2018-09-04T02:04:06.015Z,0
2018-09-04T02:05:06.763Z,0
2018-09-04T02:06:07.481Z,0
2018-09-04T02:07:08.462Z,0
2018-09-04T02:08:09.189Z,0
2018-09-04T02:09:09.901Z,0
2018-09-04T02:10:10.617Z,0
2018-09-04T02:11:11.356Z,0
2018-09-04T02:12:12.098Z,0
2018-09-04T02:13:12.826Z,0
2018-09-04T02:14:13.545Z,0
2018-09-04T02:15:14.267Z,0
2018-09-04T02:16:15.267Z,0
2018-09-04T02:17:15.993Z,0
2018-09-04T02:18:16.728Z,0
2018-09-04T02:19:17.443Z,0
2018-09-04T02:20:18.213Z,0
2018-09-04T02:21:19.199Z,0
2018-09-04T02:22:19.916Z,0
2018-09-04T02:23:20.657Z,0
2018-09-04T02:24:21.373Z,0
2018-09-04T02:25:22.448Z,0
2018-09-04T02:26:23.180Z,0
2018-09-04T02:27:23.912Z,0
2018-09-04T02:28:24.630Z,0
2018-09-04T02:29:25.363Z,0
2018-09-04T02:30:26.094Z,0
2018-09-04T02:31:27.132Z,0
2018-09-04T02:32:27.845Z,0
2018-09-04T02:33:28.569Z,0
2018-09-04T02:34:29.295Z,0
2018-09-04T02:35:30.019Z,0
2018-09-04T02:36:30.992Z,0
2018-09-04T02:37:31.717Z,0
2018-09-04T02:38:32.491Z,0
2018-09-04T02:39:33.224Z,0
2018-09-04T02:40:33.954Z,0
2018-09-04T02:41:34.679Z,0
2018-09-04T02:42:35.397Z,0
2018-09-04T02:43:36.122Z,0
2018-09-04T02:44:36.849Z,0
2018-09-04T02:45:37.567Z,0
2018-09-04T02:46:38.293Z,0
2018-09-04T02:47:39.020Z,0
2018-09-04T02:48:39.742Z,0
2018-09-04T02:49:40.474Z,0
2018-09-04T02:50:41.195Z,0
2018-09-04T02:51:41.974Z,0
2018-09-04T02:52:42.701Z,0
2018-09-04T02:53:43.435Z,0
2018-09-04T02:54:44.418Z,0
2018-09-04T02:55:45.147Z,0
2018-09-04T02:56:46.223Z,0
2018-09-04T02:57:46.946Z,0
2018-09-04T02:58:47.683Z,0
2018-09-04T02:59:48.397Z,0
2018-09-04T03:00:49.369Z,0
2018-09-04T03:01:50.132Z,0
2018-09-04T03:02:50.860Z,0
2018-09-04T03:03:51.581Z,0
2018-09-04T03:04:52.300Z,0
2018-09-04T03:05:53.025Z,0
2018-09-04T03:06:53.990Z,0
2018-09-04T03:07:54.776Z,0
2018-09-04T03:08:55.755Z,0
2018-09-04T03:09:56.715Z,0
2018-09-04T03:10:57.427Z,0
2018-09-04T03:11:58.164Z,0
2018-09-04T03:12:58.934Z,0
2018-09-04T03:13:59.786Z,0
2018-09-04T03:15:00.401Z,0
2018-09-04T03:16:01.121Z,0
2018-09-04T03:17:01.847Z,0
2018-09-04T03:18:02.572Z,0
2018-09-04T03:19:03.308Z,0
2018-09-04T03:20:04.049Z,0
2018-09-04T03:21:04.779Z,0
2018-09-04T03:22:05.498Z,0
2018-09-04T03:23:06.505Z,0
2018-09-04T03:24:07.194Z,0
2018-09-04T03:25:07.916Z,0
2018-09-04T03:26:08.883Z,0
2018-09-04T03:27:09.606Z,0
2018-09-04T03:28:10.334Z,0
2018-09-04T03:29:11.056Z,0
2018-09-04T03:30:11.785Z,0
2018-09-04T03:31:12.515Z,0
2018-09-04T03:32:13.227Z,0
2018-09-04T03:33:13.950Z,0
2018-09-04T03:34:14.918Z,0
2018-09-04T03:35:15.647Z,0
2018-09-04T03:36:16.380Z,0
2018-09-04T03:37:17.103Z,0
2018-09-04T03:38:17.818Z,0
2018-09-04T03:39:18.546Z,0
2018-09-04T03:40:19.275Z,0
2018-09-04T03:41:20.008Z,0
2018-09-04T03:42:20.756Z,0
2018-09-04T03:43:21.470Z,0
2018-09-04T03:44:22.531Z,0
2018-09-04T03:45:23.172Z,0
2018-09-04T03:46:23.893Z,0
2018-09-04T03:47:24.618Z,0
2018-09-04T03:48:25.349Z,0
2018-09-04T03:49:26.151Z,0
2018-09-04T03:50:26.871Z,0
2018-09-04T03:51:27.590Z,0
2018-09-04T03:52:28.393Z,0
2018-09-04T03:53:29.049Z,0
2018-09-04T03:54:29.825Z,0
2018-09-04T03:55:30.544Z,0
2018-09-04T03:56:31.273Z,0
2018-09-04T03:57:31.996Z,0
2018-09-04T03:58:32.718Z,0
2018-09-04T03:59:33.447Z,0
2018-09-04T04:00:34.213Z,0
2018-09-04T04:01:34.980Z,0
2018-09-04T04:02:35.664Z,0
2018-09-04T04:03:36.387Z,0
2018-09-04T04:04:37.110Z,0
2018-09-04T04:05:37.832Z,0
2018-09-04T04:06:38.566Z,4
2018-09-04T04:07:39.285Z,4
2018-09-04T04:08:40.028Z,4
2018-09-04T04:09:40.757Z,0
2018-09-04T04:10:41.480Z,4
2018-09-04T04:11:42.220Z,4
2018-09-04T04:12:42.946Z,8
2018-09-04T04:13:43.680Z,8
2018-09-04T04:14:44.398Z,8
2018-09-04T04:15:45.135Z,12
2018-09-04T04:16:45.846Z,12
2018-09-04T04:17:46.579Z,12
2018-09-04T04:18:47.318Z,16
2018-09-04T04:19:48.042Z,20
2018-09-04T04:20:48.771Z,20
2018-09-04T04:21:49.549Z,24
2018-09-04T04:22:50.283Z,28
2018-09-04T04:23:51.014Z,36
2018-09-04T04:24:51.733Z,36
2018-09-04T04:25:52.452Z,44
2018-09-04T04:26:53.181Z,52
2018-09-04T04:27:53.921Z,60
2018-09-04T04:28:54.652Z,68
2018-09-04T04:29:55.375Z,76
2018-09-04T04:30:56.105Z,88
2018-09-04T04:31:56.885Z,100
2018-09-04T04:32:58.013Z,108
2018-09-04T04:33:58.668Z,120
2018-09-04T04:34:59.404Z,136
2018-09-04T04:36:00.362Z,152
2018-09-04T04:37:01.083Z,168
2018-09-04T04:38:01.824Z,188
2018-09-04T04:39:02.541Z,208
2018-09-04T04:40:03.298Z,228
2018-09-04T04:41:04.276Z,252
2018-09-04T04:42:04.993Z,276
2018-09-04T04:43:05.725Z,308
2018-09-04T04:44:06.451Z,332
2018-09-04T04:45:07.421Z,368
2018-09-04T04:46:08.172Z,396
2018-09-04T04:47:09.248Z,432
2018-09-04T04:48:10.351Z,464
2018-09-04T04:49:10.998Z,504
2018-09-04T04:50:11.743Z,544
2018-09-04T04:51:12.473Z,580
2018-09-04T04:52:13.560Z,620
2018-09-04T04:53:14.295Z,656
2018-09-04T04:54:15.274Z,700
2018-09-04T04:55:15.995Z,740
2018-09-04T04:56:16.727Z,788
2018-09-04T04:57:17.468Z,840
2018-09-04T04:58:18.196Z,892
2018-09-04T04:59:18.924Z,940
2018-09-04T05:00:19.699Z,996
2018-09-04T05:01:20.387Z,1056
2018-09-04T05:02:21.109Z,1116
2018-09-04T05:03:21.887Z,1180
2018-09-04T05:04:22.617Z,1248
2018-09-04T05:05:23.363Z,1316
2018-09-04T05:06:24.088Z,1388
2018-09-04T05:07:24.830Z,1472
2018-09-04T05:08:25.608Z,1556
2018-09-04T05:09:26.344Z,1648
2018-09-04T05:10:27.070Z,1740
2018-09-04T05:11:27.821Z,1840
2018-09-04T05:12:28.538Z,1940
2018-09-04T05:13:29.278Z,2036
2018-09-04T05:14:30.006Z,2140
2018-09-04T05:15:30.744Z,2232
2018-09-04T05:16:31.465Z,2332
2018-09-04T05:17:32.198Z,2412
2018-09-04T05:18:32.944Z,2492
2018-09-04T05:19:33.714Z,2552
2018-09-04T05:20:34.462Z,2616
2018-09-04T05:21:35.191Z,2700
2018-09-04T05:22:35.940Z,2772
2018-09-04T05:23:36.662Z,2844
2018-09-04T05:24:37.393Z,2908
2018-09-04T05:25:38.132Z,2980
2018-09-04T05:26:38.859Z,3040
2018-09-04T05:27:39.600Z,3120
2018-09-04T05:28:40.332Z,3224
2018-09-04T05:29:41.057Z,3336
2018-09-04T05:30:41.822Z,3432
2018-09-04T05:31:42.549Z,3516
2018-09-04T05:32:43.263Z,3604
2018-09-04T05:33:44.305Z,3720
2018-09-04T05:34:45.077Z,3848
2018-09-04T05:35:45.833Z,3960
2018-09-04T05:36:46.620Z,4060
2018-09-04T05:37:47.308Z,4124
2018-09-04T05:38:48.044Z,4156
2018-09-04T05:39:48.794Z,4164
2018-09-04T05:40:49.551Z,4168
2018-09-04T05:41:50.326Z,4184
2018-09-04T05:42:51.273Z,4236
2018-09-04T05:43:52.253Z,4280
2018-09-04T05:44:53.255Z,4352
2018-09-04T05:45:53.993Z,4516
2018-09-04T05:46:55.530Z,4836
2018-09-04T05:47:56.256Z,5224
2018-09-04T05:48:57.053Z,5588
2018-09-04T05:49:58.050Z,5900
2018-09-04T05:50:58.764Z,6172
2018-09-04T05:51:59.507Z,6396
2018-09-04T05:53:00.487Z,6608
2018-09-04T05:54:01.514Z,6712
2018-09-04T05:55:02.490Z,6720
2018-09-04T05:56:03.221Z,6672
2018-09-04T05:57:03.960Z,6516
2018-09-04T05:58:04.926Z,6324
2018-09-04T05:59:05.999Z,6240
2018-09-04T06:00:06.739Z,6200
2018-09-04T06:01:07.729Z,6148
2018-09-04T06:02:08.460Z,6076
2018-09-04T06:03:09.198Z,5996
2018-09-04T06:04:09.923Z,5956
2018-09-04T06:05:10.653Z,5976
2018-09-04T06:06:11.387Z,6076
2018-09-04T06:07:12.125Z,6224
2018-09-04T06:08:12.844Z,6392
2018-09-04T06:09:13.577Z,6588
2018-09-04T06:10:14.316Z,6764
2018-09-04T06:11:15.031Z,6812
2018-09-04T06:12:15.812Z,6772
2018-09-04T06:13:16.551Z,6768
2018-09-04T06:14:17.432Z,6808
2018-09-04T06:15:18.284Z,6848
2018-09-04T06:16:19.026Z,6912
2018-09-04T06:17:19.751Z,6956
2018-09-04T06:18:20.476Z,6972
2018-09-04T06:19:21.213Z,6960
2018-09-04T06:20:21.958Z,6884
2018-09-04T06:21:22.696Z,6760
2018-09-04T06:22:23.470Z,6592
2018-09-04T06:23:24.207Z,6452
2018-09-04T06:24:24.935Z,6352
2018-09-04T06:25:26.408Z,6264
2018-09-04T06:26:27.139Z,6212
2018-09-04T06:27:27.872Z,6196
2018-09-04T06:28:28.615Z,6188
2018-09-04T06:29:29.382Z,6256
2018-09-04T06:30:30.070Z,6392
2018-09-04T06:31:30.799Z,6560
2018-09-04T06:32:31.535Z,6756
2018-09-04T06:33:32.273Z,6952
2018-09-04T06:34:33.001Z,7100
2018-09-04T06:35:33.800Z,7200
2018-09-04T06:36:34.478Z,7188
2018-09-04T06:37:35.211Z,7136
2018-09-04T06:38:35.961Z,7060
2018-09-04T06:39:36.937Z,7032
2018-09-04T06:40:37.957Z,7008
2018-09-04T06:41:38.695Z,7004
2018-09-04T06:42:39.424Z,7020
2018-09-04T06:43:40.638Z,7024
2018-09-04T06:44:41.707Z,7052
2018-09-04T06:45:43.227Z,7084
2018-09-04T06:46:44.128Z,7088
2018-09-04T06:47:44.843Z,7140
2018-09-04T06:48:45.580Z,7172
2018-09-04T06:49:46.309Z,7224
2018-09-04T06:50:47.044Z,7280
2018-09-04T06:51:48.138Z,7408
2018-09-04T06:52:48.867Z,7612
2018-09-04T06:53:49.597Z,7764
2018-09-04T06:54:50.327Z,7924
2018-09-04T06:55:51.055Z,8120
2018-09-04T06:56:51.788Z,8376
2018-09-04T06:57:52.578Z,8724
2018-09-04T06:58:53.261Z,9032
2018-09-04T06:59:53.988Z,9288
2018-09-04T07:00:54.728Z,9548
2018-09-04T07:01:55.466Z,10244
2018-09-04T07:02:56.234Z,11024
2018-09-04T07:03:56.973Z,10972
2018-09-04T07:04:57.704Z,11160
2018-09-04T07:05:58.453Z,11524
2018-09-04T07:06:59.182Z,11912
2018-09-04T07:07:59.909Z,12216
2018-09-04T07:09:00.646Z,12456
2018-09-04T07:10:01.377Z,12752
2018-09-04T07:11:02.113Z,12800
2018-09-04T07:12:02.834Z,12812
2018-09-04T07:13:03.573Z,12848
2018-09-04T07:14:04.309Z,12828
2018-09-04T07:15:05.057Z,12760
2018-09-04T07:16:05.782Z,12752
2018-09-04T07:17:06.569Z,12772
2018-09-04T07:18:07.598Z,12760
2018-09-04T07:19:08.330Z,12736
2018-09-04T07:20:09.059Z,12852
2018-09-04T07:21:09.804Z,13272
2018-09-04T07:22:10.785Z,13528
2018-09-04T07:23:11.516Z,13940
2018-09-04T07:24:12.259Z,15392
2018-09-04T07:25:13.003Z,16448
2018-09-04T07:26:13.741Z,15040
2018-09-04T07:27:14.473Z,14216
2018-09-04T07:28:15.208Z,14144
2018-09-04T07:29:15.939Z,14332
2018-09-04T07:30:17.174Z,14324
2018-09-04T07:31:17.902Z,14100
2018-09-04T07:32:18.629Z,13936
2018-09-04T07:33:19.366Z,13864
2018-09-04T07:34:20.093Z,13796
2018-09-04T07:35:20.884Z,13848
2018-09-04T07:36:21.657Z,13860
2018-09-04T07:37:22.337Z,14108
2018-09-04T07:38:23.074Z,14344
2018-09-04T07:39:23.819Z,14652
2018-09-04T07:40:24.599Z,14976
2018-09-04T07:41:25.324Z,15264
2018-09-04T07:42:26.058Z,15524
2018-09-04T07:43:26.793Z,15748
2018-09-04T07:44:27.518Z,15864
2018-09-04T07:45:28.276Z,15944
2018-09-04T07:46:29.000Z,16064
2018-09-04T07:47:29.749Z,16120
2018-09-04T07:48:30.482Z,16172
2018-09-04T07:49:31.218Z,16532
2018-09-04T07:50:31.944Z,16852
2018-09-04T07:51:32.712Z,17324
2018-09-04T07:52:33.439Z,18080
2018-09-04T07:53:34.180Z,18592
2018-09-04T07:54:34.909Z,18880
2018-09-04T07:55:35.647Z,19072
2018-09-04T07:56:36.381Z,19296
2018-09-04T07:57:37.122Z,19648
2018-09-04T07:58:37.851Z,20064
2018-09-04T07:59:38.575Z,20480
2018-09-04T08:00:39.306Z,20896
2018-09-04T08:01:40.080Z,21248
2018-09-04T08:02:40.822Z,21568
2018-09-04T08:03:41.553Z,21984
2018-09-04T08:04:42.288Z,22432
2018-09-04T08:05:43.023Z,22816
2018-09-04T08:06:43.754Z,23232
2018-09-04T08:07:44.487Z,23616
2018-09-04T08:08:45.220Z,23872
2018-09-04T08:09:45.954Z,23936
2018-09-04T08:10:46.686Z,23968
2018-09-04T08:11:47.408Z,24000
2018-09-04T08:12:48.147Z,23968
2018-09-04T08:13:48.885Z,23872
2018-09-04T08:14:49.607Z,23872
2018-09-04T08:15:50.397Z,23872
2018-09-04T08:16:51.086Z,23936
2018-09-04T08:17:51.826Z,24064
2018-09-04T08:18:52.564Z,24288
2018-09-04T08:19:53.290Z,24576
2018-09-04T08:20:54.098Z,24928
2018-09-04T08:21:54.770Z,25248
2018-09-04T08:22:55.503Z,25600
2018-09-04T08:23:56.242Z,26016
2018-09-04T08:24:56.983Z,26624
2018-09-04T08:25:57.768Z,27488
2018-09-04T08:26:58.485Z,29056
2018-09-04T08:27:59.225Z,28192
2018-09-04T08:28:59.959Z,28352
2018-09-04T08:30:00.701Z,28544
2018-09-04T08:31:01.427Z,28768
2018-09-04T08:32:02.233Z,29184
2018-09-04T08:33:03.021Z,29760
2018-09-04T08:34:03.718Z,30336
2018-09-04T08:35:04.451Z,30880
2018-09-04T08:36:05.175Z,31264
2018-09-04T08:37:05.906Z,31712
2018-09-04T08:38:06.629Z,31904
2018-09-04T08:39:07.371Z,32160
2018-09-04T08:40:08.130Z,33184
2018-09-04T08:41:08.844Z,34144
2018-09-04T08:42:09.578Z,34272
2018-09-04T08:43:10.672Z,33600
2018-09-04T08:44:11.406Z,33696
2018-09-04T08:45:12.150Z,34080
2018-09-04T08:46:12.885Z,34432
2018-09-04T08:47:13.627Z,34720
2018-09-04T08:48:14.716Z,35552
2018-09-04T08:49:15.461Z,36672
2018-09-04T08:50:16.215Z,34880
2018-09-04T08:51:16.945Z,34624
2018-09-04T08:52:17.697Z,35232
2018-09-04T08:53:18.489Z,36896
2018-09-04T08:54:19.213Z,35776
2018-09-04T08:55:20.017Z,34592
2018-09-04T08:56:20.683Z,34272
2018-09-04T08:57:21.425Z,35072
2018-09-04T08:58:22.205Z,39488
2018-09-04T08:59:22.945Z,53856
2018-09-04T09:00:23.929Z,51456
2018-09-04T09:01:24.667Z,41216
2018-09-04T09:02:25.403Z,39424
2018-09-04T09:03:26.135Z,42432
2018-09-04T09:04:26.870Z,65568
2018-09-04T09:05:27.642Z,68480
2018-09-04T09:06:28.353Z,69120
2018-09-04T09:07:29.081Z,67648
2018-09-04T09:08:29.825Z,64288
2018-09-04T09:09:30.912Z,63424
2018-09-04T09:10:31.897Z,64288
2018-09-04T09:11:32.621Z,66272
2018-09-04T09:12:33.354Z,67488
2018-09-04T09:13:34.093Z,66752
2018-09-04T09:14:34.838Z,65760
2018-09-04T09:15:35.567Z,64288
2018-09-04T09:16:36.333Z,61696
2018-09-04T09:17:37.040Z,55136
2018-09-04T09:18:38.056Z,53376
2018-09-04T09:19:38.846Z,58656
2018-09-04T09:20:39.580Z,64448
2018-09-04T09:21:40.571Z,65824
2018-09-04T09:22:41.327Z,63840
2018-09-04T09:23:42.047Z,62048
2018-09-04T09:24:43.070Z,62496
2018-09-04T09:25:43.808Z,63424
2018-09-04T09:26:44.547Z,64064
2018-09-04T09:27:45.528Z,66336
2018-09-04T09:28:46.278Z,68608
2018-09-04T09:29:47.009Z,68704
2018-09-04T09:30:47.796Z,66848
2018-09-04T09:31:48.525Z,66144
2018-09-04T09:32:49.263Z,66592
2018-09-04T09:33:50.000Z,65760
2018-09-04T09:34:50.741Z,65568
2018-09-04T09:35:51.501Z,65536
2018-09-04T09:36:52.361Z,64736
2018-09-04T09:37:53.009Z,63936
2018-09-04T09:38:53.752Z,61632
2018-09-04T09:39:54.490Z,61152
2018-09-04T09:40:55.227Z,62560
2018-09-04T09:41:55.960Z,62912
2018-09-04T09:42:56.705Z,63264
2018-09-04T09:43:57.433Z,64736
2018-09-04T09:44:58.164Z,65184
2018-09-04T09:45:58.912Z,64320
2018-09-04T09:46:59.646Z,64160
2018-09-04T09:48:00.403Z,63264
2018-09-04T09:49:01.129Z,62688
2018-09-04T09:50:01.942Z,60096
2018-09-04T09:51:03.315Z,58688
2018-09-04T09:52:04.340Z,59936
2018-09-04T09:53:05.170Z,63520
2018-09-04T09:54:05.874Z,67808
2018-09-04T09:55:06.551Z,69408
2018-09-04T09:56:07.320Z,65792
2018-09-04T09:57:08.021Z,62112
2018-09-04T09:58:08.807Z,63488
2018-09-04T09:59:09.556Z,63648
2018-09-04T10:00:10.340Z,62016
2018-09-04T10:01:11.046Z,60608
2018-09-04T10:02:13.097Z,60960
2018-09-04T10:03:14.834Z,63136
2018-09-04T10:04:16.298Z,64928
2018-09-04T10:05:17.064Z,66592
2018-09-04T10:06:17.806Z,68352
2018-09-04T10:07:18.537Z,70336
2018-09-04T10:08:19.353Z,68256
2018-09-04T10:09:20.327Z,63424
2018-09-04T10:10:21.114Z,59872
2018-09-04T10:11:21.790Z,61600
2018-09-04T10:12:22.698Z,62912
2018-09-04T10:13:23.478Z,62560
2018-09-04T10:14:24.223Z,62592
2018-09-04T10:15:24.965Z,63616
2018-09-04T10:16:25.710Z,63904
2018-09-04T10:17:26.468Z,64928
2018-09-04T10:18:27.245Z,65632
2018-09-04T10:19:27.979Z,68832
2018-09-04T10:20:28.725Z,70656
2018-09-04T10:21:29.459Z,70496
2018-09-04T10:22:30.203Z,70880
2018-09-04T10:23:30.939Z,71008
2018-09-04T10:24:31.673Z,70848
2018-09-04T10:25:32.433Z,69504
2018-09-04T10:26:33.171Z,68416
2018-09-04T10:27:33.893Z,67776
2018-09-04T10:28:34.638Z,68896
2018-09-04T10:29:35.368Z,69504
2018-09-04T10:30:36.092Z,69280
2018-09-04T10:31:36.831Z,68128
2018-09-04T10:32:37.566Z,68160
2018-09-04T10:33:38.316Z,68000
2018-09-04T10:34:39.056Z,68192
2018-09-04T10:35:40.119Z,68000
2018-09-04T10:36:40.829Z,68672
2018-09-04T10:37:41.567Z,68448
2018-09-04T10:38:42.313Z,70208
2018-09-04T10:39:43.043Z,71872
2018-09-04T10:40:43.795Z,73344
2018-09-04T10:41:44.538Z,74272
2018-09-04T10:42:45.530Z,72320
2018-09-04T10:43:46.271Z,71008
2018-09-04T10:44:47.011Z,71616
2018-09-04T10:45:47.740Z,73856
2018-09-04T10:46:48.476Z,71360
2018-09-04T10:47:49.224Z,68672
2018-09-04T10:48:49.950Z,66368
2018-09-04T10:49:50.687Z,68320
2018-09-04T10:50:51.427Z,72896
2018-09-04T10:51:52.165Z,76320
2018-09-04T10:52:52.907Z,77056
2018-09-04T10:53:53.903Z,76704
2018-09-04T10:54:54.631Z,73728
2018-09-04T10:55:55.367Z,69152
2018-09-04T10:56:56.098Z,67808
2018-09-04T10:57:56.843Z,69728
2018-09-04T10:58:57.576Z,70080
2018-09-04T10:59:58.314Z,69280
2018-09-04T11:00:59.057Z,67488
2018-09-04T11:01:59.803Z,64544
2018-09-04T11:03:00.535Z,63552
2018-09-04T11:04:01.283Z,69888
2018-09-04T11:05:02.051Z,66080
2018-09-04T11:06:02.791Z,65568
2018-09-04T11:07:03.526Z,84608
2018-09-04T11:08:04.522Z,86976
2018-09-04T11:09:05.347Z,77408
2018-09-04T11:10:06.451Z,72736
2018-09-04T11:11:07.256Z,69792
2018-09-04T11:12:08.008Z,56352
2018-09-04T11:13:08.754Z,63712
2018-09-04T11:14:09.839Z,64992
2018-09-04T11:15:10.583Z,67584
2018-09-04T11:16:11.570Z,70048
2018-09-04T11:17:12.309Z,72096
2018-09-04T11:18:13.049Z,74176
2018-09-04T11:19:13.848Z,71520
2018-09-04T11:20:14.588Z,68384
2018-09-04T11:21:15.336Z,66112
2018-09-04T11:22:16.082Z,67072
2018-09-04T11:23:16.827Z,72352
2018-09-04T11:24:17.615Z,73952
2018-09-04T11:25:18.352Z,74240
2018-09-04T11:26:19.090Z,69792
2018-09-04T11:27:19.837Z,68768
2018-09-04T11:28:20.563Z,71776
2018-09-04T11:29:21.305Z,73376
2018-09-04T11:30:22.044Z,69920
2018-09-04T11:31:23.128Z,65760
2018-09-04T11:32:23.859Z,63712
2018-09-04T11:33:24.607Z,61760
2018-09-04T11:34:25.347Z,61088
2018-09-04T11:35:26.086Z,66752
2018-09-04T11:36:27.220Z,71584
2018-09-04T11:37:28.550Z,71104
2018-09-04T11:38:29.438Z,68992
2018-09-04T11:39:30.192Z,67008
2018-09-04T11:40:30.948Z,69056
2018-09-04T11:41:32.022Z,69888
2018-09-04T11:42:32.789Z,69408
2018-09-04T11:43:33.528Z,69344
2018-09-04T11:44:34.268Z,67648
2018-09-04T11:45:35.001Z,65152
2018-09-04T11:46:35.740Z,66368
2018-09-04T11:47:36.489Z,68352
2018-09-04T11:48:37.227Z,69120
2018-09-04T11:49:37.967Z,68960
2018-09-04T11:50:38.709Z,55104
2018-09-04T11:51:39.447Z,74944
2018-09-04T11:52:40.189Z,75168
2018-09-04T11:53:40.931Z,71648
2018-09-04T11:54:41.682Z,70592
2018-09-04T11:55:42.429Z,71008
2018-09-04T11:56:43.170Z,70272
2018-09-04T11:57:44.259Z,69120
2018-09-04T11:58:45.012Z,69504
2018-09-04T11:59:45.810Z,71520
2018-09-04T12:00:46.480Z,73088
2018-09-04T12:01:47.264Z,72480
2018-09-04T12:02:47.975Z,73216
2018-09-04T12:03:48.713Z,75680
2018-09-04T12:04:49.455Z,76416
2018-09-04T12:05:50.258Z,73024
2018-09-04T12:06:50.948Z,70144
2018-09-04T12:07:51.695Z,70080
2018-09-04T12:08:52.430Z,69632
2018-09-04T12:09:53.183Z,70240
2018-09-04T12:10:53.923Z,70336
2018-09-04T12:11:54.665Z,68320
2018-09-04T12:12:55.496Z,62688
2018-09-04T12:13:56.208Z,64576
2018-09-04T12:14:56.936Z,65632
2018-09-04T12:15:57.689Z,63072
2018-09-04T12:16:58.423Z,60192
2018-09-04T12:17:59.227Z,61696
2018-09-04T12:18:59.965Z,62656
2018-09-04T12:20:00.720Z,62848
2018-09-04T12:21:01.583Z,61504
2018-09-04T12:22:02.208Z,58816
2018-09-04T12:23:02.947Z,57088
2018-09-04T12:24:03.693Z,58016
2018-09-04T12:25:04.439Z,59552
2018-09-04T12:26:05.176Z,64320
2018-09-04T12:27:05.984Z,67200
2018-09-04T12:28:07.009Z,64704
2018-09-04T12:29:07.745Z,63808
2018-09-04T12:30:08.985Z,67328
2018-09-04T12:31:09.710Z,69216
2018-09-04T12:32:10.447Z,67872
2018-09-04T12:33:11.192Z,62400
2018-09-04T12:34:11.938Z,56416
2018-09-04T12:35:12.688Z,54752
2018-09-04T12:36:13.421Z,60032
2018-09-04T12:37:14.152Z,65376
2018-09-04T12:38:14.886Z,65888
2018-09-04T12:39:15.626Z,56256
2018-09-04T12:40:16.361Z,42944
2018-09-04T12:41:17.106Z,39072
2018-09-04T12:42:17.841Z,19712
2018-09-04T12:43:18.595Z,37952
2018-09-04T12:44:19.383Z,64960
2018-09-04T12:45:20.068Z,62656
2018-09-04T12:46:20.810Z,57792
2018-09-04T12:47:21.556Z,41344
2018-09-04T12:48:22.330Z,45312
2018-09-04T12:49:23.053Z,58336
2018-09-04T12:50:23.795Z,57760
2018-09-04T12:51:24.534Z,52928
2018-09-04T12:52:25.527Z,52736
2018-09-04T12:53:26.277Z,51392
2018-09-04T12:54:27.084Z,53088
2018-09-04T12:55:28.069Z,52928
2018-09-04T12:56:28.824Z,55456
2018-09-04T12:57:29.559Z,60608
2018-09-04T12:58:30.310Z,65280
2018-09-04T12:59:31.057Z,64224
2018-09-04T13:00:32.042Z,52416
2018-09-04T13:01:32.801Z,48416
2018-09-04T13:02:33.539Z,50784
2018-09-04T13:03:34.332Z,45408
2018-09-04T13:04:35.069Z,41440
2018-09-04T13:05:35.830Z,37472
2018-09-04T13:06:36.558Z,44960
2018-09-04T13:07:37.308Z,42144
2018-09-04T13:08:38.046Z,46336
2018-09-04T13:09:38.847Z,29728
2018-09-04T13:10:39.586Z,19904
2018-09-04T13:11:40.332Z,19232
2018-09-04T13:12:41.074Z,17916
2018-09-04T13:13:41.807Z,18072
2018-09-04T13:14:42.627Z,18140
2018-09-04T13:15:43.290Z,18816
2018-09-04T13:16:44.026Z,19808
2018-09-04T13:17:44.783Z,19520
2018-09-04T13:18:45.529Z,20160
2018-09-04T13:19:46.276Z,23136
2018-09-04T13:20:47.024Z,23488
2018-09-04T13:21:47.849Z,22048
2018-09-04T13:22:48.522Z,22432
2018-09-04T13:23:49.263Z,19584
2018-09-04T13:24:50.005Z,20256
2018-09-04T13:25:51.047Z,19648
2018-09-04T13:26:51.788Z,19552
2018-09-04T13:27:52.526Z,15108
2018-09-04T13:28:53.269Z,16276
2018-09-04T13:29:54.020Z,15752
2018-09-04T13:30:54.817Z,48288
2018-09-04T13:31:55.561Z,48768
2018-09-04T13:32:56.293Z,29728
2018-09-04T13:33:57.039Z,24608
2018-09-04T13:34:57.793Z,22048
2018-09-04T13:35:58.528Z,25344
2018-09-04T13:36:59.278Z,26336
2018-09-04T13:38:00.270Z,58400
2018-09-04T13:39:01.013Z,55232
2018-09-04T13:40:01.769Z,50624
2018-09-04T13:41:02.511Z,49728
2018-09-04T13:42:03.268Z,47232
2018-09-04T13:43:03.997Z,46080